createdAt,value
2019-01-29T00:00:40.321Z,92115.22
2019-01-29T00:03:08.272Z,92131.08
2019-01-29T00:05:36.080Z,92109.06
2019-01-29T00:08:04.306Z,92113.28
2019-01-29T00:10:31.990Z,92096.95
2019-01-29T00:12:59.673Z,92096.91
2019-01-29T00:15:27.281Z,92098.53
2019-01-29T00:17:54.928Z,92127.52
2019-01-29T00:20:22.825Z,92108.84
2019-01-29T00:22:50.602Z,92108.69
2019-01-29T00:25:18.203Z,92105.77
2019-01-29T00:27:46.027Z,92102.08
2019-01-29T00:30:13.865Z,92104.00
2019-01-29T00:32:41.494Z,92124.08
2019-01-29T00:35:09.182Z,92108.12
2019-01-29T00:37:36.887Z,92121.69
2019-01-29T00:40:05.181Z,92123.32
2019-01-29T00:42:32.939Z,92126.53
2019-01-29T00:45:00.652Z,92132.44
2019-01-29T00:47:28.410Z,92130.84
2019-01-29T00:49:55.929Z,92133.32
2019-01-29T00:52:23.403Z,92144.72
2019-01-29T00:54:50.960Z,92136.73
2019-01-29T00:57:18.470Z,92142.19
2019-01-29T00:59:45.924Z,92147.59
2019-01-29T01:02:13.515Z,92149.06
2019-01-29T01:04:41.342Z,92156.77
2019-01-29T01:07:09.843Z,92154.19
2019-01-29T01:09:37.777Z,92148.50
2019-01-29T01:12:05.596Z,92143.29
2019-01-29T01:14:33.322Z,92133.05
2019-01-29T01:17:00.961Z,92140.85
2019-01-29T01:19:28.816Z,92128.81
2019-01-29T01:21:56.708Z,92124.37
2019-01-29T01:24:24.385Z,92131.27
2019-01-29T01:26:52.180Z,92135.16
2019-01-29T01:29:20.210Z,92141.90
2019-01-29T01:31:48.027Z,92146.02
2019-01-29T01:34:15.611Z,92150.94
2019-01-29T01:36:43.280Z,92155.94
2019-01-29T01:39:10.812Z,92150.16
2019-01-29T01:41:38.450Z,92148.52
2019-01-29T01:44:06.008Z,92144.72
2019-01-29T01:46:33.493Z,92146.82
2019-01-29T01:49:01.101Z,92142.45
2019-01-29T01:51:28.743Z,92136.21
2019-01-29T01:53:56.421Z,92145.11
2019-01-29T01:56:24.146Z,92132.23
2019-01-29T01:58:51.784Z,92127.55
2019-01-29T02:01:19.502Z,92126.22
2019-01-29T02:03:47.164Z,92113.45
2019-01-29T02:06:14.789Z,92121.75
2019-01-29T02:08:42.503Z,92120.10
2019-01-29T02:11:10.136Z,92111.37
2019-01-29T02:13:37.859Z,92119.70
2019-01-29T02:16:05.485Z,92137.25
2019-01-29T02:18:33.214Z,92136.95
2019-01-29T02:21:01.069Z,92130.58
2019-01-29T02:23:28.852Z,92141.38
2019-01-29T02:25:56.576Z,92126.77
2019-01-29T02:28:24.260Z,92120.21
2019-01-29T02:30:51.907Z,92117.45
2019-01-29T02:33:19.617Z,92128.33
2019-01-29T02:35:47.287Z,92143.13
2019-01-29T02:38:14.980Z,92129.72
2019-01-29T02:40:42.757Z,92122.28
2019-01-29T02:43:10.421Z,92134.75
2019-01-29T02:45:38.137Z,92132.48
2019-01-29T02:48:05.761Z,92129.33
2019-01-29T02:50:33.282Z,92130.23
2019-01-29T02:53:00.957Z,92134.41
2019-01-29T02:55:28.502Z,92140.25
2019-01-29T02:57:56.226Z,92138.61
2019-01-29T03:00:25.122Z,92123.26
2019-01-29T03:02:52.857Z,92136.02
2019-01-29T03:05:20.762Z,92127.56
2019-01-29T03:07:48.818Z,92131.64
2019-01-29T03:10:20.887Z,92118.49
2019-01-29T03:12:48.417Z,92117.10
2019-01-29T03:15:21.763Z,92131.95
2019-01-29T03:17:49.619Z,92123.94
2019-01-29T03:20:17.551Z,92128.83
2019-01-29T03:22:45.234Z,92119.15
2019-01-29T03:25:13.077Z,92118.77
2019-01-29T03:27:40.726Z,92117.88
2019-01-29T03:30:11.047Z,92111.94
2019-01-29T03:32:38.840Z,92114.06
2019-01-29T03:35:06.760Z,92117.89
2019-01-29T03:37:34.391Z,92117.84
2019-01-29T03:40:02.163Z,92118.20
2019-01-29T03:42:29.848Z,92120.89
2019-01-29T03:44:57.513Z,92125.53
2019-01-29T03:47:25.248Z,92114.80
2019-01-29T03:49:52.905Z,92109.69
2019-01-29T03:52:20.518Z,92111.45
2019-01-29T03:54:48.237Z,92110.94
2019-01-29T03:57:15.787Z,92114.90
2019-01-29T03:59:43.966Z,92114.64
2019-01-29T04:02:11.462Z,92117.14
2019-01-29T04:04:39.334Z,92123.81
2019-01-29T04:07:07.135Z,92130.09
2019-01-29T04:09:34.984Z,92135.48
2019-01-29T04:12:02.835Z,92135.28
2019-01-29T04:14:30.836Z,92131.41
2019-01-29T04:16:58.938Z,92140.08
2019-01-29T04:19:27.708Z,92137.66
2019-01-29T04:21:55.590Z,92141.86
2019-01-29T04:24:23.251Z,92134.13
2019-01-29T04:26:51.199Z,92131.16
2019-01-29T04:29:19.109Z,92131.06
2019-01-29T04:31:46.647Z,92124.63
2019-01-29T04:34:14.350Z,92126.11
2019-01-29T04:36:41.936Z,92124.29
2019-01-29T04:39:09.733Z,92125.67
2019-01-29T04:41:37.329Z,92132.05
2019-01-29T04:44:05.269Z,92139.62
2019-01-29T04:46:32.994Z,92141.47
2019-01-29T04:49:00.561Z,92137.28
2019-01-29T04:51:28.214Z,92144.08
2019-01-29T04:53:57.509Z,92150.58
2019-01-29T04:56:25.451Z,92155.06
2019-01-29T04:58:53.107Z,92147.47
2019-01-29T05:01:21.062Z,92152.20
2019-01-29T05:03:49.674Z,92140.47
2019-01-29T05:06:17.413Z,92143.90
2019-01-29T05:08:45.108Z,92154.33
2019-01-29T05:11:12.817Z,92149.05
2019-01-29T05:13:40.729Z,92147.49
2019-01-29T05:16:08.558Z,92151.63
2019-01-29T05:18:36.205Z,92160.11
2019-01-29T05:21:04.135Z,92151.45
2019-01-29T05:23:31.733Z,92164.60
2019-01-29T05:25:59.460Z,92146.83
2019-01-29T05:28:27.412Z,92156.84
2019-01-29T05:30:55.125Z,92161.94
2019-01-29T05:33:22.783Z,92162.00
2019-01-29T05:35:50.720Z,92159.55
2019-01-29T05:38:18.400Z,92155.23
2019-01-29T05:40:46.090Z,92163.66
2019-01-29T05:43:13.795Z,92170.64
2019-01-29T05:45:41.635Z,92156.84
2019-01-29T05:48:09.368Z,92176.71
2019-01-29T05:50:37.061Z,92178.06
2019-01-29T05:53:05.010Z,92182.05
2019-01-29T05:55:32.946Z,92180.99
2019-01-29T05:58:00.806Z,92201.91
2019-01-29T06:00:32.820Z,92186.16
2019-01-29T06:03:00.540Z,92197.69
2019-01-29T06:05:28.194Z,92192.45
2019-01-29T06:07:55.853Z,92209.72
2019-01-29T06:10:23.683Z,92193.80
2019-01-29T06:12:51.696Z,92199.97
2019-01-29T06:15:19.504Z,92200.27
2019-01-29T06:17:47.717Z,92199.40
2019-01-29T06:20:21.114Z,92209.55
2019-01-29T06:22:49.180Z,92204.64
2019-01-29T06:25:17.232Z,92208.72
2019-01-29T06:27:45.002Z,92197.42
2019-01-29T06:30:14.744Z,92202.77
2019-01-29T06:32:42.629Z,92198.30
2019-01-29T06:35:11.957Z,92198.39
2019-01-29T06:37:39.604Z,92211.28
2019-01-29T06:40:09.466Z,92204.61
2019-01-29T06:42:37.309Z,92214.06
2019-01-29T06:45:07.328Z,92221.81
2019-01-29T06:47:35.238Z,92219.33
2019-01-29T06:50:03.184Z,92213.64
2019-01-29T06:52:30.837Z,92208.82
2019-01-29T06:54:58.546Z,92212.11
2019-01-29T06:57:26.467Z,92206.20
2019-01-29T06:59:54.178Z,92199.64
2019-01-29T07:02:22.279Z,92212.00
2019-01-29T07:04:50.013Z,92209.67
2019-01-29T07:07:17.792Z,92209.95
2019-01-29T07:09:45.734Z,92221.91
2019-01-29T07:12:13.378Z,92215.72
2019-01-29T07:14:41.112Z,92223.07
2019-01-29T07:17:22.206Z,92229.25
2019-01-29T07:19:52.776Z,92224.78
2019-01-29T07:22:20.501Z,92221.14
2019-01-29T07:24:48.437Z,92230.72
2019-01-29T07:27:16.619Z,92222.52
2019-01-29T07:29:44.951Z,92222.53
2019-01-29T07:32:12.892Z,92224.10
2019-01-29T07:34:40.662Z,92222.88
2019-01-29T07:37:08.263Z,92211.31
2019-01-29T07:39:36.106Z,92226.88
2019-01-29T07:42:03.931Z,92222.70
2019-01-29T07:44:31.587Z,92223.86
2019-01-29T07:46:59.675Z,92221.67
2019-01-29T07:49:27.528Z,92233.82
2019-01-29T07:51:55.768Z,92224.53
2019-01-29T07:54:23.584Z,92236.72
2019-01-29T07:56:51.419Z,92236.04
2019-01-29T07:59:32.406Z,92237.65
2019-01-29T08:01:48.918Z,92240.31
2019-01-29T08:04:16.667Z,92248.79
2019-01-29T08:06:44.712Z,92246.19
2019-01-29T08:09:12.487Z,92249.34
2019-01-29T08:11:40.037Z,92245.43
2019-01-29T08:14:07.672Z,92254.84
2019-01-29T08:16:35.350Z,92248.83
2019-01-29T08:19:03.889Z,92253.38
2019-01-29T08:21:31.609Z,92260.97
2019-01-29T08:23:59.147Z,92267.09
2019-01-29T08:26:27.034Z,92266.67
2019-01-29T08:28:54.708Z,92268.44
2019-01-29T08:31:22.675Z,92270.10
2019-01-29T08:33:50.339Z,92267.27
2019-01-29T08:36:18.196Z,92276.33
2019-01-29T08:38:45.864Z,92279.52
2019-01-29T08:41:13.568Z,92285.23
2019-01-29T08:43:41.517Z,92283.31
2019-01-29T08:46:09.728Z,92285.88
2019-01-29T08:48:37.552Z,92287.30
2019-01-29T08:51:05.372Z,92293.80
2019-01-29T08:53:33.234Z,92288.77
2019-01-29T08:56:01.165Z,92290.73
2019-01-29T08:58:29.212Z,92297.64
2019-01-29T09:00:56.990Z,92300.78
2019-01-29T09:03:24.695Z,92306.23
2019-01-29T09:05:52.515Z,92309.83
2019-01-29T09:08:20.164Z,92310.08
2019-01-29T09:10:48.070Z,92299.97
2019-01-29T09:13:15.834Z,92305.70
2019-01-29T09:15:43.402Z,92306.55
2019-01-29T09:18:10.947Z,92305.67
2019-01-29T09:20:39.054Z,92312.22
2019-01-29T09:23:06.689Z,92315.25
2019-01-29T09:25:34.838Z,92310.13
2019-01-29T09:28:02.670Z,92325.27
2019-01-29T09:30:30.507Z,92319.77
2019-01-29T09:32:58.318Z,92320.09
2019-01-29T09:35:25.995Z,92323.47
2019-01-29T09:37:54.105Z,92324.61
2019-01-29T09:40:21.964Z,92322.58
2019-01-29T09:42:49.993Z,92323.60
2019-01-29T09:45:18.297Z,92327.38
2019-01-29T09:47:46.095Z,92327.31
2019-01-29T09:50:16.581Z,92330.59
2019-01-29T09:52:44.558Z,92330.89
2019-01-29T09:55:13.798Z,92333.16
2019-01-29T09:57:41.573Z,92336.62
2019-01-29T10:00:17.774Z,92327.02
2019-01-29T10:02:46.020Z,92325.97
2019-01-29T10:05:14.010Z,92321.03
2019-01-29T10:07:41.633Z,92317.98
2019-01-29T10:10:10.285Z,92308.92
2019-01-29T10:12:38.178Z,92303.20
2019-01-29T10:15:08.163Z,92307.00
2019-01-29T10:17:36.094Z,92301.45
2019-01-29T10:20:04.579Z,92297.80
2019-01-29T10:22:32.327Z,92294.72
2019-01-29T10:24:59.946Z,92289.48
2019-01-29T10:27:27.668Z,92293.23
2019-01-29T10:29:55.256Z,92294.98
2019-01-29T10:32:22.920Z,92283.09
2019-01-29T10:34:50.535Z,92278.41
2019-01-29T10:37:18.294Z,92277.11
2019-01-29T10:39:45.850Z,92279.00
2019-01-29T10:42:13.513Z,92275.72
2019-01-29T10:44:41.145Z,92276.77
2019-01-29T10:47:08.862Z,92268.39
2019-01-29T10:49:36.855Z,92265.12
2019-01-29T10:52:05.331Z,92262.28
2019-01-29T10:54:33.424Z,92268.85
2019-01-29T10:57:01.273Z,92262.39
2019-01-29T10:59:28.938Z,92256.39
2019-01-29T11:01:56.603Z,92255.56
2019-01-29T11:04:24.875Z,92260.06
2019-01-29T11:06:52.938Z,92262.84
2019-01-29T11:09:33.288Z,92262.35
2019-01-29T11:12:01.054Z,92262.52
2019-01-29T11:14:48.331Z,92256.73
2019-01-29T11:17:17.922Z,92257.87
2019-01-29T11:19:53.291Z,92254.16
2019-01-29T11:22:21.154Z,92260.35
2019-01-29T11:25:08.645Z,92254.70
2019-01-29T11:27:38.965Z,92247.98
2019-01-29T11:30:08.911Z,92247.26
2019-01-29T11:32:36.914Z,92248.30
2019-01-29T11:35:12.402Z,92256.72
2019-01-29T11:37:58.609Z,92249.56
2019-01-29T11:40:49.016Z,92243.40
2019-01-29T11:43:19.294Z,92258.31
2019-01-29T11:45:50.340Z,92252.50
2019-01-29T11:48:18.435Z,92250.25
2019-01-29T11:50:46.357Z,92243.80
2019-01-29T11:53:14.495Z,92245.98
2019-01-29T11:55:42.350Z,92241.09
2019-01-29T11:58:10.453Z,92238.73
2019-01-29T12:00:45.982Z,92234.84
2019-01-29T12:03:14.141Z,92237.19
2019-01-29T12:05:42.178Z,92238.62
2019-01-29T12:08:09.855Z,92230.28
2019-01-29T12:10:37.533Z,92239.67
2019-01-29T12:13:05.782Z,92235.32
2019-01-29T12:15:33.655Z,92234.98
2019-01-29T12:18:01.502Z,92231.56
2019-01-29T12:20:29.168Z,92234.37
2019-01-29T12:22:57.001Z,92227.90
2019-01-29T12:25:24.566Z,92221.42
2019-01-29T12:27:52.343Z,92229.54
2019-01-29T12:30:20.393Z,92226.34
2019-01-29T12:32:48.513Z,92221.47
2019-01-29T12:35:17.470Z,92220.77
2019-01-29T12:37:45.173Z,92223.39
2019-01-29T12:40:13.440Z,92227.11
2019-01-29T12:42:41.284Z,92227.55
2019-01-29T12:45:10.168Z,92224.09
2019-01-29T12:47:38.007Z,92231.88
2019-01-29T12:50:08.177Z,92228.45
2019-01-29T12:52:48.299Z,92227.16
2019-01-29T12:55:16.231Z,92226.52
2019-01-29T12:57:43.831Z,92225.95
2019-01-29T13:00:13.884Z,92232.33
2019-01-29T13:02:41.604Z,92222.88
2019-01-29T13:05:10.379Z,92223.94
2019-01-29T13:07:37.843Z,92233.92
2019-01-29T13:10:08.391Z,92231.61
2019-01-29T13:12:36.553Z,92234.09
2019-01-29T13:15:05.735Z,92247.83
2019-01-29T13:17:33.534Z,92232.95
2019-01-29T13:20:01.277Z,92229.44
2019-01-29T13:22:29.030Z,92236.34
2019-01-29T13:24:57.166Z,92239.94
2019-01-29T13:27:24.866Z,92245.83
2019-01-29T13:29:52.580Z,92245.01
2019-01-29T13:32:20.170Z,92252.22
2019-01-29T13:34:47.945Z,92252.06
2019-01-29T13:37:15.680Z,92249.66
2019-01-29T13:39:43.255Z,92254.97
2019-01-29T13:42:10.972Z,92254.23
2019-01-29T13:44:38.630Z,92251.95
2019-01-29T13:47:06.592Z,92245.36
2019-01-29T13:49:34.315Z,92257.06
2019-01-29T13:52:01.930Z,92249.55
2019-01-29T13:54:29.839Z,92252.03
2019-01-29T13:56:57.635Z,92250.05
2019-01-29T13:59:25.679Z,92250.44
2019-01-29T14:01:53.534Z,92252.71
2019-01-29T14:04:21.388Z,92252.29
2019-01-29T14:06:49.090Z,92249.09
2019-01-29T14:09:17.158Z,92248.06
2019-01-29T14:11:46.471Z,92249.59
2019-01-29T14:14:15.323Z,92253.16
2019-01-29T14:16:44.570Z,92250.81
2019-01-29T14:19:12.617Z,92252.36
2019-01-29T14:21:40.466Z,92253.62
2019-01-29T14:24:08.335Z,92255.40
2019-01-29T14:26:36.317Z,92251.17
2019-01-29T14:29:04.670Z,92249.86
2019-01-29T14:31:32.462Z,92253.06
2019-01-29T14:34:00.171Z,92244.69
2019-01-29T14:36:27.811Z,92252.71
2019-01-29T14:39:18.931Z,92253.77
2019-01-29T14:41:46.751Z,92245.33
2019-01-29T14:44:24.337Z,92243.00
2019-01-29T14:46:52.356Z,92237.48
2019-01-29T14:49:20.025Z,92238.75
2019-01-29T14:51:47.909Z,92234.61
2019-01-29T14:54:15.821Z,92229.13
2019-01-29T14:56:43.478Z,92231.77
2019-01-29T14:59:11.412Z,92228.77
2019-01-29T15:01:39.362Z,92233.89
2019-01-29T15:04:07.239Z,92233.47
2019-01-29T15:06:35.777Z,92229.45
2019-01-29T15:09:07.796Z,92221.09
2019-01-29T15:11:35.608Z,92228.78
2019-01-29T15:14:04.068Z,92222.33
2019-01-29T15:16:54.191Z,92223.39
2019-01-29T15:19:24.547Z,92222.48
2019-01-29T15:21:52.319Z,92227.59
2019-01-29T15:24:19.968Z,92228.73
2019-01-29T15:26:47.692Z,92231.78
2019-01-29T15:29:15.467Z,92227.25
2019-01-29T15:31:43.334Z,92226.87
2019-01-29T15:34:11.160Z,92229.83
2019-01-29T15:36:39.046Z,92229.45
2019-01-29T15:39:08.206Z,92226.52
2019-01-29T15:41:35.884Z,92223.23
2019-01-29T15:44:03.934Z,92230.75
2019-01-29T15:46:31.466Z,92227.10
2019-01-29T15:48:59.182Z,92226.42
2019-01-29T15:51:26.782Z,92230.29
2019-01-29T15:53:54.454Z,92235.91
2019-01-29T15:56:22.043Z,92237.88
2019-01-29T15:58:49.738Z,92237.15
2019-01-29T16:01:17.577Z,92242.84
2019-01-29T16:03:45.283Z,92240.61
2019-01-29T16:06:12.987Z,92244.28
2019-01-29T16:08:40.634Z,92238.51
2019-01-29T16:11:09.162Z,92241.63
2019-01-29T16:13:37.023Z,92243.32
2019-01-29T16:16:04.747Z,92239.17
2019-01-29T16:18:32.306Z,92239.61
2019-01-29T16:21:00.066Z,92241.30
2019-01-29T16:23:27.717Z,92244.64
2019-01-29T16:25:55.395Z,92242.27
2019-01-29T16:28:22.989Z,92244.33
2019-01-29T16:30:50.911Z,92244.84
2019-01-29T16:33:18.600Z,92244.91
2019-01-29T16:35:46.254Z,92243.05
2019-01-29T16:38:14.060Z,92245.12
2019-01-29T16:40:42.633Z,92240.91
2019-01-29T16:43:10.462Z,92247.64
2019-01-29T16:45:38.344Z,92243.76
2019-01-29T16:48:06.588Z,92240.05
2019-01-29T16:50:34.489Z,92241.84
2019-01-29T16:53:02.142Z,92242.11
2019-01-29T16:55:31.727Z,92246.98
2019-01-29T16:57:59.759Z,92240.69
2019-01-29T17:00:29.152Z,92242.41
2019-01-29T17:02:56.960Z,92240.52
2019-01-29T17:05:25.066Z,92243.66
2019-01-29T17:07:52.961Z,92239.08
2019-01-29T17:10:21.319Z,92236.97
2019-01-29T17:12:49.372Z,92234.88
2019-01-29T17:15:25.692Z,92234.97
2019-01-29T17:17:53.748Z,92233.33
2019-01-29T17:20:24.189Z,92238.88
2019-01-29T17:22:51.966Z,92231.86
2019-01-29T17:25:19.758Z,92228.66
2019-01-29T17:27:47.605Z,92230.51
2019-01-29T17:30:23.902Z,92228.23
2019-01-29T17:32:51.508Z,92228.97
2019-01-29T17:35:19.323Z,92230.17
2019-01-29T17:37:47.045Z,92222.69
2019-01-29T17:40:15.171Z,92223.72
2019-01-29T17:42:43.044Z,92223.25
2019-01-29T17:45:13.290Z,92220.78
2019-01-29T17:47:41.312Z,92221.81
2019-01-29T17:50:14.038Z,92223.09
2019-01-29T17:52:42.700Z,92223.01
2019-01-29T17:55:11.792Z,92224.64
2019-01-29T17:57:39.560Z,92227.98
2019-01-29T18:00:10.528Z,92224.55
2019-01-29T18:02:38.351Z,92214.72
2019-01-29T18:05:06.593Z,92217.40
2019-01-29T18:07:34.388Z,92216.58
2019-01-29T18:10:03.539Z,92218.59
2019-01-29T18:12:31.411Z,92224.77
2019-01-29T18:14:59.221Z,92221.96
2019-01-29T18:17:27.188Z,92222.78
2019-01-29T18:19:55.323Z,92226.13
2019-01-29T18:22:23.641Z,92224.55
2019-01-29T18:24:51.658Z,92227.22
2019-01-29T18:27:19.640Z,92224.22
2019-01-29T18:29:47.279Z,92228.98
2019-01-29T18:32:15.142Z,92222.77
2019-01-29T18:34:43.394Z,92222.47
2019-01-29T18:37:11.140Z,92225.33
2019-01-29T18:39:39.432Z,92223.76
2019-01-29T18:42:07.968Z,92224.70
2019-01-29T18:44:36.134Z,92224.14
2019-01-29T18:47:04.250Z,92225.89
2019-01-29T18:49:32.371Z,92218.81
2019-01-29T18:52:00.535Z,92217.54
2019-01-29T18:54:28.739Z,92219.09
2019-01-29T18:56:56.767Z,92220.84
2019-01-29T18:59:24.577Z,92219.94
2019-01-29T19:01:52.517Z,92212.56
2019-01-29T19:04:20.348Z,92213.59
2019-01-29T19:06:48.132Z,92215.93
2019-01-29T19:09:16.397Z,92218.77
2019-01-29T19:11:44.239Z,92205.64
2019-01-29T19:14:12.673Z,92199.83
2019-01-29T19:16:40.689Z,92192.42
2019-01-29T19:19:08.639Z,92196.71
2019-01-29T19:21:36.738Z,92200.78
2019-01-29T19:24:04.582Z,92203.46
2019-01-29T19:26:32.937Z,92201.60
2019-01-29T19:29:00.754Z,92197.19
2019-01-29T19:31:28.803Z,92191.58
2019-01-29T19:33:56.646Z,92184.94
2019-01-29T19:36:24.482Z,92175.77
2019-01-29T19:38:52.632Z,92169.06
2019-01-29T19:41:20.702Z,92162.42
2019-01-29T19:43:48.866Z,92161.09
2019-01-29T19:46:17.301Z,92158.58
2019-01-29T19:48:45.474Z,92164.80
2019-01-29T19:51:13.362Z,92163.08
2019-01-29T19:53:41.093Z,92158.73
2019-01-29T19:56:08.839Z,92149.75
2019-01-29T19:58:38.094Z,92146.20
2019-01-29T20:01:05.963Z,92139.50
2019-01-29T20:03:33.838Z,92143.78
2019-01-29T20:06:01.692Z,92143.45
2019-01-29T20:08:29.286Z,92135.98
2019-01-29T20:10:56.899Z,92140.00
2019-01-29T20:13:24.643Z,92137.68
2019-01-29T20:15:52.463Z,92140.88
2019-01-29T20:18:20.176Z,92129.55
2019-01-29T20:20:47.757Z,92122.19
2019-01-29T20:23:15.435Z,92111.91
2019-01-29T20:25:43.422Z,92116.41
2019-01-29T20:28:11.150Z,92122.47
2019-01-29T20:30:39.246Z,92124.38
2019-01-29T20:33:07.190Z,92115.69
2019-01-29T20:35:35.092Z,92119.89
2019-01-29T20:38:03.095Z,92120.86
2019-01-29T20:40:30.990Z,92116.45
2019-01-29T20:42:58.812Z,92112.51
2019-01-29T20:45:26.710Z,92120.45
2019-01-29T20:47:55.169Z,92122.88
2019-01-29T20:50:29.072Z,92120.80
2019-01-29T20:52:56.634Z,92124.66
2019-01-29T20:55:24.933Z,92117.80
2019-01-29T20:57:52.927Z,92124.10
2019-01-29T21:00:23.692Z,92123.84
2019-01-29T21:02:51.411Z,92106.56
2019-01-29T21:05:19.689Z,92105.36
2019-01-29T21:07:49.210Z,92107.78
2019-01-29T21:10:18.878Z,92101.59
2019-01-29T21:12:46.808Z,92111.00
2019-01-29T21:15:15.796Z,92101.92
2019-01-29T21:17:43.992Z,92097.16
2019-01-29T21:20:14.648Z,92080.20
2019-01-29T21:22:42.355Z,92078.69
2019-01-29T21:25:10.109Z,92085.08
2019-01-29T21:27:37.825Z,92087.91
2019-01-29T21:30:11.618Z,92087.73
2019-01-29T21:32:39.334Z,92087.18
2019-01-29T21:35:07.754Z,92085.64
2019-01-29T21:37:35.601Z,92078.10
2019-01-29T21:40:05.274Z,92086.20
2019-01-29T21:42:33.131Z,92084.64
2019-01-29T21:45:00.819Z,92073.28
2019-01-29T21:47:28.503Z,92080.52
2019-01-29T21:49:56.232Z,92077.66
2019-01-29T21:52:23.917Z,92071.98
2019-01-29T21:54:51.611Z,92076.66
2019-01-29T21:57:19.245Z,92069.86
2019-01-29T21:59:47.084Z,92067.58
2019-01-29T22:02:14.904Z,92068.23
2019-01-29T22:04:42.596Z,92075.53
2019-01-29T22:07:10.340Z,92075.10
2019-01-29T22:09:38.079Z,92063.73
2019-01-29T22:12:05.723Z,92065.28
2019-01-29T22:14:33.332Z,92076.19
2019-01-29T22:17:00.995Z,92074.81
2019-01-29T22:19:30.677Z,92061.52
2019-01-29T22:21:58.180Z,92063.98
2019-01-29T22:24:25.827Z,92076.41
2019-01-29T22:26:53.378Z,92067.89
2019-01-29T22:29:23.386Z,92078.77
2019-01-29T22:31:50.510Z,92069.27
2019-01-29T22:34:18.163Z,92082.05
2019-01-29T22:36:45.917Z,92068.73
2019-01-29T22:39:13.565Z,92063.25
2019-01-29T22:41:41.117Z,92068.34
2019-01-29T22:44:08.824Z,92074.30
2019-01-29T22:46:36.547Z,92075.77
2019-01-29T22:49:04.282Z,92079.54
2019-01-29T22:51:31.802Z,92069.55
2019-01-29T22:53:59.672Z,92055.83
2019-01-29T22:56:27.449Z,92050.78
2019-01-29T22:58:55.223Z,92041.95
2019-01-29T23:01:36.544Z,92051.21
2019-01-29T23:04:16.688Z,92045.45
2019-01-29T23:07:06.479Z,92047.64
2019-01-29T23:09:34.375Z,92041.33
2019-01-29T23:12:02.148Z,92039.58
2019-01-29T23:14:29.682Z,92045.34
2019-01-29T23:16:57.586Z,92045.56
2019-01-29T23:19:25.324Z,92042.72
2019-01-29T23:21:52.989Z,92037.78
2019-01-29T23:24:20.622Z,92029.37
2019-01-29T23:26:48.497Z,92028.00
2019-01-29T23:29:17.239Z,92021.94
2019-01-29T23:31:45.013Z,92011.05
2019-01-29T23:34:12.627Z,92020.95
2019-01-29T23:36:40.176Z,92015.27
2019-01-29T23:39:08.654Z,92018.48
2019-01-29T23:41:36.378Z,92018.84
2019-01-29T23:44:04.440Z,92017.64
2019-01-29T23:46:32.255Z,92018.39
2019-01-29T23:49:00.071Z,92006.09
2019-01-29T23:51:27.938Z,92004.89
2019-01-29T23:53:55.474Z,92001.89
2019-01-29T23:56:22.998Z,91994.20
2019-01-29T23:58:50.756Z,91992.53
